Time;durP1;ratioP1;P1;durP2;ratioP2;P2;SDS_P1;SDS_P2;PMS_P1;PMS_P2;Temp;Humidity;BMP_temperature;BMP_pressure;BME280_temperature;BME280_humidity;BME280_pressure;Samples;Min_cycle;Max_cycle;Signal;HPM_P1;HPM_P2
2023/05/11 00:00:39;;;;;;;21.90;10.45;;;;;;;;;;4982653;28;20192;-68
2023/05/11 00:03:05;;;;;;;21.10;11.18;;;;;;;;;;4981790;28;20194;-67
2023/05/11 00:05:30;;;;;;;25.42;12.02;;;;;;;;;;4982611;28;20333;-67
2023/05/11 00:07:55;;;;;;;22.30;10.93;;;;;;;;;;4981036;28;20661;-69
2023/05/11 00:10:20;;;;;;;22.75;11.45;;;;;;;;;;4982703;28;20172;-68
2023/05/11 00:12:46;;;;;;;20.10;9.98;;;;;;;;;;4980343;28;20180;-68
2023/05/11 00:15:11;;;;;;;20.92;11.43;;;;;;;;;;4982229;28;20615;-68
2023/05/11 00:17:36;;;;;;;24.10;11.15;;;;;;;;;;4980196;28;20602;-68
2023/05/11 00:20:01;;;;;;;22.92;10.77;;;;;;;;;;4982973;28;20193;-68
2023/05/11 00:22:26;;;;;;;22.98;12.45;;;;;;;;;;4983858;28;20181;-69
2023/05/11 00:24:52;;;;;;;21.90;11.30;;;;;;;;;;4990129;28;20210;-68
2023/05/11 00:27:17;;;;;;;24.02;11.48;;;;;;;;;;4991890;28;20290;-68
2023/05/11 00:29:42;;;;;;;19.55;10.57;;;;;;;;;;4987370;28;20255;-68
2023/05/11 00:32:07;;;;;;;27.20;12.10;;;;;;;;;;4991762;28;20208;-68
2023/05/11 00:34:32;;;;;;;21.45;10.70;;;;;;;;;;4986882;28;20187;-68
2023/05/11 00:36:58;;;;;;;24.58;10.77;;;;;;;;;;4986420;28;20239;-68
2023/05/11 00:39:23;;;;;;;24.17;11.90;;;;;;;;;;4987897;28;20317;-68
2023/05/11 00:41:48;;;;;;;26.48;11.25;;;;;;;;;;4981920;28;20188;-68
2023/05/11 00:44:14;;;;;;;23.95;11.80;;;;;;;;;;4979266;28;20592;-68
2023/05/11 00:46:39;;;;;;;25.10;11.73;;;;;;;;;;4982244;28;20673;-69
2023/05/11 00:49:04;;;;;;;24.55;11.18;;;;;;;;;;4980827;28;20234;-68
2023/05/11 00:51:30;;;;;;;24.95;11.57;;;;;;;;;;4980962;28;20653;-68
2023/05/11 00:53:56;;;;;;;25.42;11.68;;;;;;;;;;4977806;28;20171;-69
2023/05/11 00:56:22;;;;;;;26.05;11.65;;;;;;;;;;4980094;28;20265;-68
2023/05/11 00:58:47;;;;;;;25.05;10.80;;;;;;;;;;4977032;28;20188;-68
2023/05/11 01:01:16;;;;;;;23.45;11.93;;;;;;;;;;4978921;28;20574;-68
2023/05/11 01:03:41;;;;;;;21.52;11.88;;;;;;;;;;4982062;28;20176;-68
2023/05/11 01:06:28;;;;;;;23.05;11.35;;;;;;;;;;4980483;28;20261;-68
2023/05/11 01:09:01;;;;;;;23.42;11.43;;;;;;;;;;4978947;28;20187;-68
2023/05/11 01:11:35;;;;;;;27.27;12.05;;;;;;;;;;4981387;28;20214;-68
2023/05/11 01:14:21;;;;;;;24.65;11.38;;;;;;;;;;4980326;28;20171;-68
2023/05/11 01:16:48;;;;;;;21.88;10.77;;;;;;;;;;4974054;28;20255;-68
2023/05/11 01:19:20;;;;;;;22.63;11.77;;;;;;;;;;4978718;28;20284;-68
2023/05/11 01:21:45;;;;;;;23.85;11.98;;;;;;;;;;4979135;28;20179;-68
2023/05/11 01:24:10;;;;;;;24.17;12.65;;;;;;;;;;4978060;28;20188;-68
2023/05/11 01:26:36;;;;;;;23.67;11.23;;;;;;;;;;4980031;28;20720;-67
2023/05/11 01:29:19;;;;;;;22.90;11.38;;;;;;;;;;4980172;28;20184;-68
2023/05/11 01:31:48;;;;;;;27.42;11.95;;;;;;;;;;4982429;28;20739;-68
2023/05/11 01:34:16;;;;;;;25.52;13.25;;;;;;;;;;4980180;28;20180;-68
2023/05/11 01:36:46;;;;;;;25.90;11.85;;;;;;;;;;4987833;28;20194;-68
2023/05/11 01:39:12;;;;;;;27.00;12.43;;;;;;;;;;4979766;28;20188;-68
2023/05/11 01:41:39;;;;;;;22.75;12.82;;;;;;;;;;4986936;28;20199;-68
2023/05/11 01:44:06;;;;;;;30.33;11.93;;;;;;;;;;4974441;28;20188;-68
2023/05/11 01:46:32;;;;;;;25.30;12.15;;;;;;;;;;4985167;28;20215;-68
2023/05/11 01:48:58;;;;;;;25.35;12.43;;;;;;;;;;4985193;28;20184;-68
2023/05/11 01:51:26;;;;;;;25.23;11.40;;;;;;;;;;4992952;28;20277;-68
2023/05/11 01:53:52;;;;;;;23.88;12.18;;;;;;;;;;4992025;28;20566;-68
2023/05/11 01:56:19;;;;;;;25.67;12.43;;;;;;;;;;4989919;28;20245;-69
2023/05/11 01:58:45;;;;;;;22.15;12.07;;;;;;;;;;4996661;28;20548;-68
2023/05/11 02:01:11;;;;;;;22.98;12.27;;;;;;;;;;4974469;28;20176;-68
2023/05/11 02:03:36;;;;;;;24.65;11.13;;;;;;;;;;4989522;28;20492;-68
2023/05/11 02:06:03;;;;;;;25.58;12.38;;;;;;;;;;4985453;28;20607;-68
2023/05/11 02:08:30;;;;;;;29.17;13.35;;;;;;;;;;4990216;28;20234;-68
2023/05/11 02:10:56;;;;;;;27.35;12.43;;;;;;;;;;4990405;28;20291;-68
2023/05/11 02:13:22;;;;;;;27.58;12.38;;;;;;;;;;4988790;28;20211;-68
2023/05/11 02:15:50;;;;;;;25.45;11.80;;;;;;;;;;4989399;28;20175;-68
2023/05/11 02:18:15;;;;;;;28.75;13.30;;;;;;;;;;4993791;28;20580;-70
2023/05/11 02:20:42;;;;;;;28.42;12.63;;;;;;;;;;4988610;28;20243;-68
2023/05/11 02:23:08;;;;;;;28.77;12.20;;;;;;;;;;4991370;28;20199;-68
2023/05/11 02:25:33;;;;;;;28.13;12.45;;;;;;;;;;4990619;28;20188;-68
2023/05/11 02:27:59;;;;;;;25.15;10.80;;;;;;;;;;4983791;28;20291;-69
2023/05/11 02:30:26;;;;;;;27.73;12.38;;;;;;;;;;4987081;28;20180;-68
2023/05/11 02:32:53;;;;;;;32.53;13.07;;;;;;;;;;4990722;28;20187;-68
2023/05/11 02:35:23;;;;;;;29.17;12.27;;;;;;;;;;4982220;28;20646;-68
2023/05/11 02:37:48;;;;;;;25.75;13.48;;;;;;;;;;4993625;28;20673;-68
2023/05/11 02:40:16;;;;;;;25.13;11.85;;;;;;;;;;4989770;28;20194;-69
2023/05/11 02:42:41;;;;;;;31.75;14.95;;;;;;;;;;4983832;28;20323;-68
2023/05/11 02:45:07;;;;;;;28.80;12.40;;;;;;;;;;4985845;28;20274;-68
2023/05/11 02:47:38;;;;;;;26.58;12.65;;;;;;;;;;4994697;28;20330;-68
2023/05/11 02:50:04;;;;;;;31.15;14.82;;;;;;;;;;4992182;28;20184;-67
2023/05/11 02:52:30;;;;;;;29.38;13.98;;;;;;;;;;4983646;28;20207;-68
2023/05/11 02:54:57;;;;;;;31.83;13.30;;;;;;;;;;4988260;28;20176;-67
2023/05/11 02:57:23;;;;;;;27.85;13.90;;;;;;;;;;4989764;28;20222;-67
2023/05/11 02:59:48;;;;;;;30.55;12.38;;;;;;;;;;4991643;28;20262;-67
2023/05/11 03:02:13;;;;;;;24.52;11.35;;;;;;;;;;4998209;28;20179;-67
2023/05/11 03:04:38;;;;;;;31.75;13.10;;;;;;;;;;4991851;28;20208;-67
2023/05/11 03:07:04;;;;;;;31.42;14.13;;;;;;;;;;4989752;28;20212;-68
2023/05/11 03:09:31;;;;;;;29.60;13.88;;;;;;;;;;4980268;28;20294;-68
2023/05/11 03:11:56;;;;;;;29.60;13.15;;;;;;;;;;4981824;28;20290;-67
2023/05/11 03:14:22;;;;;;;29.60;13.82;;;;;;;;;;4986652;28;20207;-68
2023/05/11 03:16:47;;;;;;;30.52;14.00;;;;;;;;;;4989150;28;20199;-67
2023/05/11 03:19:13;;;;;;;30.95;13.07;;;;;;;;;;4989320;28;20176;-68
2023/05/11 03:21:39;;;;;;;29.33;14.23;;;;;;;;;;4991713;28;20641;-68
2023/05/11 03:24:07;;;;;;;30.67;13.65;;;;;;;;;;4987392;28;20589;-68
2023/05/11 03:26:34;;;;;;;27.55;12.50;;;;;;;;;;4989422;28;20279;-68
2023/05/11 03:28:59;;;;;;;34.38;14.48;;;;;;;;;;4990509;28;20176;-68
2023/05/11 03:31:25;;;;;;;29.20;12.77;;;;;;;;;;4992656;28;20218;-68
2023/05/11 03:33:50;;;;;;;30.58;13.10;;;;;;;;;;4997493;28;20167;-68
2023/05/11 03:36:16;;;;;;;30.33;13.18;;;;;;;;;;4997313;28;20250;-68
2023/05/11 03:38:43;;;;;;;30.30;13.90;;;;;;;;;;4990925;28;20184;-68
2023/05/11 03:41:10;;;;;;;24.20;12.23;;;;;;;;;;4991790;28;20203;-68
2023/05/11 03:43:35;;;;;;;24.20;12.57;;;;;;;;;;4990069;28;20187;-68
2023/05/11 03:46:02;;;;;;;31.85;14.50;;;;;;;;;;4986697;28;20263;-68
2023/05/11 03:48:27;;;;;;;32.30;13.90;;;;;;;;;;4994638;28;20237;-67
2023/05/11 03:50:53;;;;;;;33.88;13.45;;;;;;;;;;4992471;28;20677;-68
2023/05/11 03:53:18;;;;;;;29.17;14.88;;;;;;;;;;4991393;28;20167;-68
2023/05/11 03:55:43;;;;;;;29.80;14.20;;;;;;;;;;4993950;28;20183;-68
2023/05/11 03:58:09;;;;;;;30.27;14.55;;;;;;;;;;4983988;28;20175;-68
2023/05/11 04:00:38;;;;;;;31.42;13.50;;;;;;;;;;4982907;28;20212;-69
2023/05/11 04:03:05;;;;;;;30.75;15.10;;;;;;;;;;4992114;28;20185;-67
2023/05/11 04:05:30;;;;;;;32.13;14.35;;;;;;;;;;4985657;28;20191;-66
2023/05/11 04:07:55;;;;;;;29.90;13.18;;;;;;;;;;4985082;28;20203;-67
2023/05/11 04:10:21;;;;;;;30.88;13.98;;;;;;;;;;4989375;28;20191;-67
2023/05/11 04:12:46;;;;;;;33.92;14.55;;;;;;;;;;4985650;28;20683;-67
2023/05/11 04:15:11;;;;;;;32.88;13.73;;;;;;;;;;4987963;28;20265;-67
2023/05/11 04:17:36;;;;;;;31.38;14.07;;;;;;;;;;4986604;28;20693;-67
2023/05/11 04:20:02;;;;;;;27.45;12.88;;;;;;;;;;4990528;28;20275;-67
2023/05/11 04:22:27;;;;;;;27.48;12.15;;;;;;;;;;4989621;28;20179;-67
2023/05/11 04:24:52;;;;;;;22.02;12.43;;;;;;;;;;4990455;28;20182;-68
2023/05/11 04:27:17;;;;;;;26.42;12.30;;;;;;;;;;4978653;28;20719;-68
2023/05/11 04:29:43;;;;;;;25.40;12.07;;;;;;;;;;4981169;28;20262;-67
2023/05/11 04:32:09;;;;;;;26.17;12.05;;;;;;;;;;4995216;28;20593;-68
2023/05/11 04:34:34;;;;;;;21.45;10.23;;;;;;;;;;4992001;28;20178;-67
2023/05/11 04:36:59;;;;;;;26.88;11.73;;;;;;;;;;4981277;28;20187;-68
2023/05/11 04:39:25;;;;;;;25.02;12.23;;;;;;;;;;4980942;28;20175;-68
2023/05/11 04:41:50;;;;;;;23.70;10.52;;;;;;;;;;4982342;28;20234;-67
2023/05/11 04:44:15;;;;;;;23.60;11.52;;;;;;;;;;4981725;28;20230;-68
2023/05/11 04:46:40;;;;;;;24.17;11.70;;;;;;;;;;4981644;28;20204;-68
2023/05/11 04:49:06;;;;;;;27.65;11.55;;;;;;;;;;4984062;28;20187;-67
2023/05/11 04:51:31;;;;;;;23.50;11.60;;;;;;;;;;4981523;28;20211;-68
2023/05/11 04:53:57;;;;;;;24.70;11.05;;;;;;;;;;4981134;28;20608;-68
2023/05/11 04:56:22;;;;;;;23.02;10.60;;;;;;;;;;4980461;28;20697;-68
2023/05/11 04:58:47;;;;;;;22.73;11.00;;;;;;;;;;4986747;28;20192;-68
2023/05/11 05:01:13;;;;;;;27.48;11.68;;;;;;;;;;4980098;28;20188;-68
2023/05/11 05:03:38;;;;;;;28.33;11.57;;;;;;;;;;4980741;28;20187;-68
2023/05/11 05:06:03;;;;;;;23.17;11.00;;;;;;;;;;4980447;28;20205;-68
2023/05/11 05:08:28;;;;;;;20.30;10.48;;;;;;;;;;4983417;28;20195;-68
2023/05/11 05:10:53;;;;;;;22.38;10.23;;;;;;;;;;4986538;28;20253;-68
2023/05/11 05:13:19;;;;;;;21.10;11.05;;;;;;;;;;4989552;28;20647;-68
2023/05/11 05:15:44;;;;;;;23.20;10.95;;;;;;;;;;4990616;28;20179;-68
2023/05/11 05:18:09;;;;;;;23.05;10.60;;;;;;;;;;4986695;28;20649;-68
2023/05/11 05:20:34;;;;;;;20.77;9.80;;;;;;;;;;4990413;28;20565;-67
2023/05/11 05:23:00;;;;;;;23.15;11.98;;;;;;;;;;4988371;28;20203;-67
2023/05/11 05:25:25;;;;;;;23.45;11.18;;;;;;;;;;4991037;28;20175;-67
2023/05/11 05:27:50;;;;;;;21.55;10.95;;;;;;;;;;4985748;28;20190;-67
2023/05/11 05:30:16;;;;;;;23.85;10.85;;;;;;;;;;4982689;28;20646;-68
2023/05/11 05:32:41;;;;;;;21.63;11.07;;;;;;;;;;4990464;28;20708;-68
2023/05/11 05:35:06;;;;;;;26.48;12.60;;;;;;;;;;4991625;28;20653;-67
2023/05/11 05:37:31;;;;;;;23.33;11.60;;;;;;;;;;4978997;28;20207;-68
2023/05/11 05:39:57;;;;;;;26.50;12.80;;;;;;;;;;4982804;28;20203;-68
2023/05/11 05:42:22;;;;;;;18.13;9.45;;;;;;;;;;4979859;28;20262;-68
2023/05/11 05:44:48;;;;;;;22.30;10.02;;;;;;;;;;4983832;28;20191;-68
2023/05/11 05:47:13;;;;;;;23.15;11.50;;;;;;;;;;4971389;28;20202;-68
2023/05/11 05:49:38;;;;;;;25.33;11.20;;;;;;;;;;4980399;28;20195;-68
2023/05/11 05:52:03;;;;;;;19.38;11.05;;;;;;;;;;4979924;28;20242;-68
2023/05/11 05:54:29;;;;;;;23.05;10.65;;;;;;;;;;4979944;28;20233;-68
2023/05/11 05:56:54;;;;;;;23.80;10.20;;;;;;;;;;4980849;28;20199;-67
2023/05/11 05:59:22;;;;;;;19.75;10.35;;;;;;;;;;4982848;28;20184;-67
2023/05/11 06:01:47;;;;;;;23.45;10.75;;;;;;;;;;4974298;28;20838;-67
2023/05/11 06:04:12;;;;;;;28.00;11.85;;;;;;;;;;4980831;28;20184;-67
2023/05/11 06:06:38;;;;;;;18.05;9.95;;;;;;;;;;4979499;28;20246;-67
2023/05/11 06:09:03;;;;;;;21.13;11.27;;;;;;;;;;4979934;28;20682;-67
2023/05/11 06:11:28;;;;;;;20.75;10.68;;;;;;;;;;4979272;28;20203;-67
2023/05/11 06:13:54;;;;;;;17.38;9.27;;;;;;;;;;4980488;28;20215;-67
2023/05/11 06:16:19;;;;;;;20.35;10.15;;;;;;;;;;4979018;28;20920;-68
2023/05/11 06:18:45;;;;;;;20.52;9.52;;;;;;;;;;4980268;28;20242;-67
2023/05/11 06:21:10;;;;;;;20.25;10.75;;;;;;;;;;4979985;28;20713;-69
2023/05/11 06:23:35;;;;;;;20.15;9.73;;;;;;;;;;4980484;28;20271;-68
2023/05/11 06:26:00;;;;;;;17.15;9.05;;;;;;;;;;4979341;28;20647;-68
2023/05/11 06:28:26;;;;;;;21.30;9.82;;;;;;;;;;4977977;28;20961;-67
2023/05/11 06:30:51;;;;;;;17.85;9.52;;;;;;;;;;4979786;28;20177;-67
2023/05/11 06:33:16;;;;;;;21.30;10.40;;;;;;;;;;4979104;28;20179;-68
2023/05/11 06:35:41;;;;;;;22.73;11.30;;;;;;;;;;4982267;28;20219;-68
2023/05/11 06:38:06;;;;;;;18.50;9.32;;;;;;;;;;4983951;28;20200;-67
2023/05/11 06:40:32;;;;;;;19.27;10.68;;;;;;;;;;4984166;28;20713;-69
2023/05/11 06:42:57;;;;;;;19.45;9.98;;;;;;;;;;4983449;28;20176;-67
2023/05/11 06:45:22;;;;;;;18.35;10.10;;;;;;;;;;4982622;28;20204;-67
2023/05/11 06:47:47;;;;;;;21.13;10.32;;;;;;;;;;4983602;28;20262;-67
2023/05/11 06:50:13;;;;;;;20.13;10.25;;;;;;;;;;4983669;28;20202;-67
2023/05/11 06:52:38;;;;;;;20.00;11.63;;;;;;;;;;4971497;28;20207;-67
2023/05/11 06:55:03;;;;;;;18.13;10.20;;;;;;;;;;4984703;28;20243;-67
2023/05/11 06:57:28;;;;;;;17.25;8.85;;;;;;;;;;4984525;28;20196;-67
2023/05/11 06:59:54;;;;;;;16.92;9.60;;;;;;;;;;4983651;28;20254;-67
2023/05/11 07:02:19;;;;;;;18.42;10.13;;;;;;;;;;4976238;28;20267;-68
2023/05/11 07:04:44;;;;;;;15.27;9.05;;;;;;;;;;4983083;28;20180;-69
2023/05/11 07:07:12;;;;;;;18.52;9.70;;;;;;;;;;4983660;28;20215;-68
2023/05/11 07:09:37;;;;;;;14.13;8.60;;;;;;;;;;4983362;28;20263;-69
2023/05/11 07:12:03;;;;;;;15.85;8.18;;;;;;;;;;4983619;28;20207;-68
2023/05/11 07:14:28;;;;;;;17.13;10.05;;;;;;;;;;4983167;28;20188;-68
2023/05/11 07:16:53;;;;;;;17.73;8.98;;;;;;;;;;4982914;28;20371;-67
2023/05/11 07:19:19;;;;;;;15.60;8.95;;;;;;;;;;4983324;28;20183;-68
2023/05/11 07:21:44;;;;;;;15.15;8.82;;;;;;;;;;4983824;28;20188;-67
2023/05/11 07:24:09;;;;;;;14.32;8.68;;;;;;;;;;4982067;28;20215;-68
2023/05/11 07:26:34;;;;;;;13.40;7.07;;;;;;;;;;4982629;28;20615;-67
2023/05/11 07:28:59;;;;;;;12.90;7.40;;;;;;;;;;4983153;28;20586;-67
2023/05/11 07:31:25;;;;;;;12.52;7.65;;;;;;;;;;4983263;28;20751;-67
2023/05/11 07:33:50;;;;;;;14.45;7.53;;;;;;;;;;4981890;28;20179;-67
2023/05/11 07:36:15;;;;;;;14.82;7.38;;;;;;;;;;4983205;28;20198;-68
2023/05/11 07:38:40;;;;;;;15.15;8.45;;;;;;;;;;4982686;28;20174;-68
2023/05/11 07:41:06;;;;;;;13.93;8.68;;;;;;;;;;4982918;28;20184;-68
2023/05/11 07:43:31;;;;;;;14.45;8.23;;;;;;;;;;4981318;28;20551;-68
2023/05/11 07:45:56;;;;;;;13.05;8.00;;;;;;;;;;4983393;28;20180;-68
2023/05/11 07:48:22;;;;;;;15.23;8.07;;;;;;;;;;4982764;28;20219;-67
2023/05/11 07:50:48;;;;;;;13.27;8.18;;;;;;;;;;4981816;28;20179;-68
2023/05/11 07:53:13;;;;;;;15.88;8.95;;;;;;;;;;4980702;28;20665;-68
2023/05/11 07:55:39;;;;;;;17.55;8.75;;;;;;;;;;4983011;28;20279;-68
2023/05/11 07:58:04;;;;;;;16.70;9.10;;;;;;;;;;4974160;28;20227;-68
2023/05/11 08:00:29;;;;;;;18.00;10.02;;;;;;;;;;4980141;28;20432;-68
2023/05/11 08:02:55;;;;;;;14.40;9.43;;;;;;;;;;4979799;28;20654;-67
2023/05/11 08:05:20;;;;;;;15.55;8.40;;;;;;;;;;4982806;28;20646;-68
2023/05/11 08:07:46;;;;;;;16.52;9.85;;;;;;;;;;4980212;28;20595;-67
2023/05/11 08:10:11;;;;;;;15.10;8.95;;;;;;;;;;4989574;28;20187;-67
2023/05/11 08:12:37;;;;;;;12.88;8.23;;;;;;;;;;4987533;28;20214;-67
2023/05/11 08:15:02;;;;;;;20.70;8.88;;;;;;;;;;4989830;28;20176;-67
2023/05/11 08:17:28;;;;;;;17.17;8.82;;;;;;;;;;4986782;28;20206;-68
2023/05/11 08:19:54;;;;;;;14.10;8.50;;;;;;;;;;4990016;28;20183;-68
2023/05/11 08:22:19;;;;;;;15.70;9.10;;;;;;;;;;4985721;28;20180;-68
2023/05/11 08:24:44;;;;;;;18.13;8.80;;;;;;;;;;4965353;28;20184;-68
2023/05/11 08:27:10;;;;;;;17.33;8.52;;;;;;;;;;4968442;28;21032;-68
2023/05/11 08:29:35;;;;;;;11.73;7.35;;;;;;;;;;4969095;28;20207;-68
2023/05/11 08:32:01;;;;;;;14.53;7.80;;;;;;;;;;4970186;28;20267;-68
2023/05/11 08:34:26;;;;;;;13.63;8.07;;;;;;;;;;4970293;28;20527;-68
2023/05/11 08:36:53;;;;;;;17.35;8.35;;;;;;;;;;4969305;28;20246;-68
2023/05/11 08:39:20;;;;;;;16.73;8.45;;;;;;;;;;4969503;28;20183;-68
2023/05/11 08:41:46;;;;;;;18.85;8.82;;;;;;;;;;4968203;28;20179;-67
2023/05/11 08:44:12;;;;;;;13.05;8.02;;;;;;;;;;4968485;28;20213;-68
2023/05/11 08:46:39;;;;;;;17.58;8.82;;;;;;;;;;4978610;28;20322;-67
2023/05/11 08:49:05;;;;;;;13.48;7.38;;;;;;;;;;4967887;28;20179;-68
2023/05/11 08:51:31;;;;;;;13.55;8.20;;;;;;;;;;4970363;28;20293;-68
2023/05/11 08:53:58;;;;;;;18.92;9.20;;;;;;;;;;4968164;28;20673;-68
2023/05/11 08:56:24;;;;;;;14.85;8.65;;;;;;;;;;4968158;28;20199;-68
2023/05/11 08:58:51;;;;;;;11.85;8.13;;;;;;;;;;4968885;28;21883;-68
2023/05/11 09:01:16;;;;;;;13.00;9.10;;;;;;;;;;4968228;28;20191;-68
2023/05/11 09:03:42;;;;;;;14.80;8.07;;;;;;;;;;4969325;28;20187;-67
2023/05/11 09:06:07;;;;;;;10.93;7.55;;;;;;;;;;4968938;28;20207;-68
2023/05/11 09:08:33;;;;;;;17.95;9.43;;;;;;;;;;4967229;28;20262;-67
2023/05/11 09:10:58;;;;;;;15.05;9.32;;;;;;;;;;4968688;28;20180;-67
2023/05/11 09:13:24;;;;;;;17.70;9.52;;;;;;;;;;4965925;28;20927;-67
2023/05/11 09:15:49;;;;;;;16.50;9.25;;;;;;;;;;4968235;28;20176;-67
2023/05/11 09:18:15;;;;;;;11.98;7.78;;;;;;;;;;4966518;28;20190;-67
2023/05/11 09:20:42;;;;;;;15.15;8.50;;;;;;;;;;4969648;28;20705;-67
2023/05/11 09:23:07;;;;;;;16.75;9.43;;;;;;;;;;4967529;28;21186;-67
2023/05/11 09:25:33;;;;;;;17.00;9.10;;;;;;;;;;4970188;28;20262;-68
2023/05/11 09:27:59;;;;;;;15.07;9.27;;;;;;;;;;4970501;28;20753;-67
2023/05/11 09:30:24;;;;;;;14.90;8.35;;;;;;;;;;4968564;28;20188;-68
2023/05/11 09:32:50;;;;;;;14.38;8.85;;;;;;;;;;4967349;28;20294;-68
2023/05/11 09:35:19;;;;;;;17.85;9.38;;;;;;;;;;4966321;28;20241;-68
2023/05/11 09:37:55;;;;;;;17.08;9.05;;;;;;;;;;4971779;28;20685;-68
2023/05/11 09:40:20;;;;;;;11.95;8.25;;;;;;;;;;4972989;28;20922;-68
2023/05/11 09:42:45;;;;;;;14.65;8.82;;;;;;;;;;4967810;28;20261;-68
2023/05/11 09:45:11;;;;;;;14.40;8.25;;;;;;;;;;4975039;28;20736;-69
2023/05/11 09:47:39;;;;;;;13.95;8.23;;;;;;;;;;4969839;28;21390;-68
2023/05/11 09:50:22;;;;;;;14.60;8.30;;;;;;;;;;4969939;28;20184;-68
2023/05/11 09:52:51;;;;;;;12.23;6.75;;;;;;;;;;4967325;28;20306;-68
2023/05/11 09:55:16;;;;;;;14.27;8.02;;;;;;;;;;4965560;28;20179;-68
2023/05/11 09:57:41;;;;;;;12.18;7.03;;;;;;;;;;4968111;28;20203;-68
2023/05/11 10:00:13;;;;;;;15.18;6.10;;;;;;;;;;4968134;28;20916;-68
2023/05/11 10:02:38;;;;;;;6.20;4.03;;;;;;;;;;4967861;28;20824;-68
2023/05/11 10:05:09;;;;;;;4.68;3.50;;;;;;;;;;4968354;28;20188;-68
2023/05/11 10:07:35;;;;;;;6.63;3.85;;;;;;;;;;4968165;28;20262;-68
2023/05/11 10:10:01;;;;;;;7.60;4.25;;;;;;;;;;4968449;28;20817;-68
2023/05/11 10:12:27;;;;;;;8.73;4.68;;;;;;;;;;4971702;28;20687;-68
2023/05/11 10:14:59;;;;;;;7.35;5.35;;;;;;;;;;4970953;28;20183;-68
2023/05/11 10:17:25;;;;;;;8.20;5.53;;;;;;;;;;4969756;28;21872;-68
2023/05/11 10:19:50;;;;;;;9.45;5.88;;;;;;;;;;4972230;28;20184;-69
2023/05/11 10:22:16;;;;;;;9.82;6.57;;;;;;;;;;4969191;28;20756;-68
2023/05/11 10:24:42;;;;;;;11.52;7.63;;;;;;;;;;4973409;28;20184;-68
2023/05/11 10:27:07;;;;;;;12.53;7.43;;;;;;;;;;4971467;28;20526;-68
2023/05/11 10:29:32;;;;;;;10.50;6.75;;;;;;;;;;4969877;28;20488;-68
2023/05/11 10:31:58;;;;;;;10.73;7.07;;;;;;;;;;4975061;28;20636;-68
2023/05/11 10:34:24;;;;;;;10.50;6.93;;;;;;;;;;4972178;28;20428;-68
2023/05/11 10:36:50;;;;;;;10.98;7.45;;;;;;;;;;4972065;28;20202;-69
2023/05/11 10:39:16;;;;;;;11.88;7.18;;;;;;;;;;4971579;28;20183;-68
2023/05/11 10:41:50;;;;;;;13.33;7.47;;;;;;;;;;4970985;28;20624;-68
2023/05/11 10:44:19;;;;;;;12.85;8.02;;;;;;;;;;4972230;28;20802;-68
2023/05/11 10:46:53;;;;;;;10.25;7.43;;;;;;;;;;4971654;28;20270;-68
2023/05/11 10:49:25;;;;;;;17.45;9.70;;;;;;;;;;4970343;28;20548;-67
2023/05/11 10:52:03;;;;;;;15.50;9.90;;;;;;;;;;4971014;28;20714;-67
2023/05/11 10:54:28;;;;;;;18.10;10.57;;;;;;;;;;4973246;28;20182;-67
2023/05/11 10:56:53;;;;;;;16.08;10.15;;;;;;;;;;4973588;28;20686;-67
2023/05/11 10:59:37;;;;;;;14.77;10.20;;;;;;;;;;4971487;28;20277;-67
2023/05/11 11:02:02;;;;;;;17.50;10.93;;;;;;;;;;4969895;28;20797;-68
2023/05/11 11:04:40;;;;;;;14.63;9.98;;;;;;;;;;4973874;28;20219;-68
2023/05/11 11:07:05;;;;;;;17.42;10.43;;;;;;;;;;4970399;28;20281;-68
2023/05/11 11:09:49;;;;;;;18.00;9.60;;;;;;;;;;4972289;28;20183;-68
2023/05/11 11:12:14;;;;;;;14.38;9.43;;;;;;;;;;4969931;28;20734;-68
2023/05/11 11:14:57;;;;;;;16.10;10.00;;;;;;;;;;4970737;28;20196;-68
2023/05/11 11:17:24;;;;;;;12.13;7.97;;;;;;;;;;4969503;28;20262;-67
2023/05/11 11:19:49;;;;;;;13.80;8.98;;;;;;;;;;4966840;28;20188;-68
2023/05/11 11:22:33;;;;;;;13.50;9.35;;;;;;;;;;4969059;28;20963;-68
2023/05/11 11:24:58;;;;;;;12.00;7.93;;;;;;;;;;4975850;28;22354;-68
2023/05/11 11:27:43;;;;;;;12.98;7.85;;;;;;;;;;4967226;28;20207;-68
2023/05/11 11:30:17;;;;;;;11.05;6.97;;;;;;;;;;4968719;28;20192;-68
2023/05/11 11:32:42;;;;;;;17.27;9.52;;;;;;;;;;4971871;28;20195;-67
2023/05/11 11:35:27;;;;;;;14.40;8.90;;;;;;;;;;4969380;28;20214;-67
2023/05/11 11:38:01;;;;;;;11.75;8.45;;;;;;;;;;4971527;28;20291;-66
2023/05/11 11:40:35;;;;;;;14.55;9.25;;;;;;;;;;4971628;28;20183;-67
2023/05/11 11:43:13;;;;;;;12.48;7.57;;;;;;;;;;4970214;28;20207;-67
2023/05/11 11:45:39;;;;;;;10.38;6.95;;;;;;;;;;4974316;28;20692;-68
2023/05/11 11:48:08;;;;;;;10.68;7.47;;;;;;;;;;4968939;28;20211;-67
2023/05/11 11:50:33;;;;;;;9.45;7.13;;;;;;;;;;4971343;28;20267;-67
2023/05/11 11:52:59;;;;;;;11.00;7.35;;;;;;;;;;4970194;28;21646;-68
2023/05/11 11:55:43;;;;;;;11.37;7.80;;;;;;;;;;4971642;28;20222;-67
2023/05/11 11:58:08;;;;;;;15.70;9.88;;;;;;;;;;4970545;28;20629;-67
2023/05/11 12:00:34;;;;;;;11.02;7.50;;;;;;;;;;4969386;28;20221;-68
2023/05/11 12:03:00;;;;;;;8.80;6.32;;;;;;;;;;4971259;28;20208;-67
2023/05/11 12:05:25;;;;;;;9.48;6.28;;;;;;;;;;4969732;28;20337;-67
2023/05/11 12:07:51;;;;;;;9.30;6.15;;;;;;;;;;4982362;23;20429;-75
2023/05/11 12:10:17;;;;;;;8.13;5.65;;;;;;;;;;4970629;28;20222;-75
2023/05/11 12:12:46;;;;;;;7.03;4.90;;;;;;;;;;4969344;28;20217;-75
2023/05/11 12:15:21;;;;;;;5.35;4.57;;;;;;;;;;4970492;28;20290;-74
2023/05/11 12:17:47;;;;;;;8.95;4.18;;;;;;;;;;4966706;28;20191;-74
2023/05/11 12:20:16;;;;;;;5.43;4.03;;;;;;;;;;4968013;28;20902;-74
2023/05/11 12:22:41;;;;;;;4.85;3.67;;;;;;;;;;4970575;28;20180;-75
2023/05/11 12:25:07;;;;;;;6.43;3.90;;;;;;;;;;4973506;28;20187;-75
2023/05/11 12:27:32;;;;;;;5.22;3.90;;;;;;;;;;4971087;28;20211;-75
2023/05/11 12:29:58;;;;;;;5.95;3.95;;;;;;;;;;4971487;28;20278;-74
2023/05/11 12:32:30;;;;;;;5.07;3.67;;;;;;;;;;4966388;28;20708;-74
2023/05/11 12:34:56;;;;;;;5.85;3.78;;;;;;;;;;4971104;28;21106;-75
2023/05/11 12:37:21;;;;;;;4.93;3.08;;;;;;;;;;4972666;28;20211;-75
2023/05/11 12:39:52;;;;;;;4.72;3.55;;;;;;;;;;4969652;28;20530;-75
2023/05/11 12:42:17;;;;;;;5.82;3.75;;;;;;;;;;4969651;28;20184;-75
2023/05/11 12:44:42;;;;;;;4.38;3.35;;;;;;;;;;4974506;28;20173;-75
2023/05/11 12:47:09;;;;;;;3.97;3.00;;;;;;;;;;4971896;28;20274;-76
2023/05/11 12:49:34;;;;;;;5.45;4.03;;;;;;;;;;4971708;28;20192;-76
2023/05/11 12:52:06;;;;;;;5.05;3.83;;;;;;;;;;4968997;28;20228;-75
2023/05/11 12:54:37;;;;;;;6.10;4.25;;;;;;;;;;4969270;28;20179;-76
2023/05/11 12:57:02;;;;;;;5.38;3.90;;;;;;;;;;4969654;28;20207;-75
2023/05/11 12:59:32;;;;;;;6.65;4.13;;;;;;;;;;4968270;28;20218;-76
2023/05/11 13:02:11;;;;;;;5.53;3.92;;;;;;;;;;4971504;28;20179;-74
2023/05/11 13:04:38;;;;;;;6.65;4.70;;;;;;;;;;4969319;28;20183;-75
2023/05/11 13:07:03;;;;;;;6.28;4.53;;;;;;;;;;4967288;28;20211;-75
2023/05/11 13:09:29;;;;;;;5.90;4.53;;;;;;;;;;4972544;28;20230;-75
2023/05/11 13:12:16;;;;;;;5.47;3.72;;;;;;;;;;4973190;28;20218;-75
2023/05/11 13:14:41;;;;;;;5.60;4.03;;;;;;;;;;4967521;28;20180;-75
2023/05/11 13:17:07;;;;;;;4.50;3.58;;;;;;;;;;4970615;28;20203;-75
2023/05/11 13:19:32;;;;;;;7.55;4.82;;;;;;;;;;4968289;28;20190;-74
2023/05/11 13:21:58;;;;;;;5.43;3.92;;;;;;;;;;4970915;28;20188;-74
2023/05/11 13:24:24;;;;;;;5.60;3.42;;;;;;;;;;4969731;28;20194;-74
2023/05/11 13:26:50;;;;;;;6.03;3.50;;;;;;;;;;4967648;28;20308;-75
2023/05/11 13:29:15;;;;;;;4.20;2.97;;;;;;;;;;4967483;28;20188;-75
2023/05/11 13:31:44;;;;;;;6.82;2.65;;;;;;;;;;4969701;28;20235;-74
2023/05/11 13:34:10;;;;;;;3.38;2.63;;;;;;;;;;4971347;28;21164;-74
2023/05/11 13:36:35;;;;;;;3.38;2.40;;;;;;;;;;4970534;28;20195;-75
2023/05/11 13:39:01;;;;;;;4.65;2.90;;;;;;;;;;4966689;28;20187;-75
2023/05/11 13:41:26;;;;;;;2.50;2.10;;;;;;;;;;4969844;28;20194;-75
2023/05/11 13:43:51;;;;;;;3.15;2.40;;;;;;;;;;4968808;28;20187;-75
2023/05/11 13:46:16;;;;;;;3.57;2.50;;;;;;;;;;4990377;28;20258;-75
2023/05/11 13:48:42;;;;;;;2.97;1.92;;;;;;;;;;4996914;28;20721;-75
2023/05/11 13:51:07;;;;;;;3.58;1.83;;;;;;;;;;4996821;28;20604;-75
2023/05/11 13:53:32;;;;;;;2.72;1.95;;;;;;;;;;4997576;28;20711;-75
2023/05/11 13:55:58;;;;;;;2.55;2.35;;;;;;;;;;4993747;28;20215;-75
2023/05/11 13:58:23;;;;;;;3.17;2.20;;;;;;;;;;4999067;28;20298;-75
2023/05/11 14:00:48;;;;;;;3.58;2.70;;;;;;;;;;4999872;28;20661;-75
2023/05/11 14:03:13;;;;;;;4.03;2.85;;;;;;;;;;4994110;28;20731;-76
2023/05/11 14:05:38;;;;;;;3.43;2.80;;;;;;;;;;4995745;28;20207;-75
2023/05/11 14:08:04;;;;;;;3.08;2.78;;;;;;;;;;4991361;28;20461;-75
2023/05/11 14:10:29;;;;;;;3.17;2.28;;;;;;;;;;4997055;28;20213;-75
2023/05/11 14:12:55;;;;;;;2.83;2.22;;;;;;;;;;4993512;28;20206;-76
2023/05/11 14:15:20;;;;;;;4.60;3.15;;;;;;;;;;4991162;28;20206;-75
2023/05/11 14:17:45;;;;;;;4.63;3.58;;;;;;;;;;4992208;28;20295;-75
2023/05/11 14:20:11;;;;;;;7.43;4.55;;;;;;;;;;4996050;28;20172;-75
2023/05/11 14:22:36;;;;;;;5.85;3.80;;;;;;;;;;4993240;28;20176;-76